Dixon, IL

4:06 AM CDT on October 21, 2019 (GMT -0500)
Moonraker | | Change Station
Active Advisory: Flood Advisory Active Notice: Flood Advisory

Elev 689 ft 41.84 °N, 89.50 °W | Updated 8 seconds ago

Overcast
Overcast
54.1 °F
Feels Like 54.1 °F
N
3
Wind Variable Wind from East
Gusts 4.0 mph

Today
High -- | Low -- °F
--% Chance of Precip.
Yesterday
High -- | Low -- °F
Precip. -- in
Pressure 29.26 in
Visibility 10.0 miles
Clouds Mostly Cloudy 4400 ft
Mostly Cloudy 5500 ft
Dew Point 51 °F
Humidity 88%
Rainfall 0.00 in
Snow Depth Not available.
7:16 AM 6:07 PM
Waning Gibbous, 52% visible
METAR KSQI 210856Z AUTO 10011KT 10SM BKN044 BKN055 13/11 A2966 RMK AO2 SLP908 6//// T01280106 58042 PNO $
Pressure 29.26 in
Visibility 10.0 miles
Clouds Mostly Cloudy 4400 ft
Mostly Cloudy 5500 ft
Dew Point 51 °F
Humidity 88%
Rainfall 0.00 in
Snow Depth Not available.
7:16 AM 6:07 PM
Waning Gibbous, 52% visible
METAR KSQI 210856Z AUTO 10011KT 10SM BKN044 BKN055 13/11 A2966 RMK AO2 SLP908 6//// T01280106 58042 PNO $

Get Your Daily Forecast Email!

Thanks for signing up!

Be on the lookout for a verification email in your inbox.

You'll start receiving severe weather alerts in your inbox..

×

10-Day Weather Forecast

Almanac

Astronomy

Oct. 21, 2019 Rise Set
Actual Time
Civil Twilight
Nautical Twilight
Astronomical Twilight
Moon
Length of Visible Light
Length of Day
Tomorrow will be .
, % of the Moon is Illuminated

Today's Extremes

State Highs State Lows

Community

WunderPhotos

Category 6

Welcome to Category 6. This is the collective home for Weather Underground's featured writeups by Dr. Jeff Masters (right), Bob Henson (left), Chris Burt, and other regular contributors.

Nearby

Air Quality

  Air Quality AQ Index Pollutant
Not available.

Snow Depth

Station Depth Elevation

Earthquake Activity

City Distance Mag. Time & Date
Minimum magnitude displayed is 2.5.

Coastal Water Temperatures

Place Temperature

Stations

Nearby Weather Stations

Station Location Temp. Windchill Dew Point Humidity Wind Precip. Elev Updated Type
                   

Watches & Warnings

Flood Advisory
Issued: 8:18 PM CDT Oct. 20, 2019 – National Weather Service

The flood advisory continues for
the Rock River at Dixon, or from Castle Rock State Park near Oregon
downstream to Lee County line.
* Until Monday evening.
* At 715 PM Sunday the stage was 13.1 feet.
* Action stage is 13.0 feet.
* Flood stage is 16.0 feet.
* Forecast... the river will continue to gradually fall.


Lat... Lon 4183 8963 4192 8948 4198 8942 4195 8932
      4183 8943 4175 8963